KCZ weather

Kochi Airport (高知空港)
Nankoku, Kōchi Prefecture, Japan

Public forecast

Using degrees Celsius for public forecast. Weather courtesy of forecast.io.

METAR (pilot weather report)

Closest report is Kōchi Ryōma Airport, 0.0 nm (0.0 km) SSE. Retrieved 2019/05/19 11:00 UTC (2 hours ago):

RJOK 191100Z 12007KT 070V140 9999 VCSH FEW010 SCT040 BKN050 21/14 Q1016

TAF (pilot weather forecast)

Closest forecast is Kōchi Ryōma Airport, 0.0 nm (0.0 km) SSE. Retrieved 2019/05/19 12:30 UTC (25 minutes ago):

TAF RJOK 191110Z 1912/2018 35004KT 9000 -SHRA FEW005 SCT020 BKN035 TEMPO 1918/1922 SHRA BECMG 1922/2000 13014KT TEMPO 1922/2006 4000 SHRA BR FEW003 SCT005 BKN008 TEMPO 2006/2012 3000 SHRA BR FEW003 SCT005 BKN008 BECMG 2012/2015 34005KT